createdAt,value
2019-04-10T00:01:45.151Z,96899.34
2019-04-10T00:06:48.483Z,96900.47
2019-04-10T00:11:51.856Z,96895.11
2019-04-10T00:16:56.342Z,96898.31
2019-04-10T00:21:59.845Z,96899.11
2019-04-10T00:27:04.075Z,96897.63
2019-04-10T00:32:07.781Z,96897.08
2019-04-10T00:37:21.854Z,96889.74
2019-04-10T00:42:16.863Z,96888.92
2019-04-10T00:47:21.146Z,96889.66
2019-04-10T00:52:24.504Z,96887.50
2019-04-10T00:57:27.818Z,96885.34
2019-04-10T01:02:31.110Z,96884.05
2019-04-10T01:07:39.541Z,96886.83
2019-04-10T01:12:40.438Z,96878.42
2019-04-10T03:21:29.605Z,96876.98
2019-04-10T03:26:33.697Z,96875.75
2019-04-10T03:31:38.943Z,96872.61
2019-04-10T03:36:44.012Z,96874.41
2019-04-10T03:41:48.387Z,96870.98
2019-04-10T03:46:52.761Z,96879.68
2019-04-10T03:51:57.007Z,96888.72
2019-04-10T03:57:00.445Z,96890.05
2019-04-10T04:02:03.720Z,96891.94
2019-04-10T04:07:07.121Z,96883.00
2019-04-10T04:12:10.576Z,96883.46
2019-04-10T04:17:13.880Z,96893.77
2019-04-10T04:22:17.190Z,96887.58
2019-04-10T04:27:21.405Z,96889.55
2019-04-10T04:32:25.865Z,96893.84
2019-04-10T04:37:30.090Z,96898.20
2019-04-10T04:42:33.540Z,96887.66
2019-04-10T04:47:36.831Z,96902.09
2019-04-10T04:52:41.104Z,96905.36
2019-04-10T04:57:45.023Z,96910.48
2019-04-10T05:02:48.391Z,96911.18
2019-04-10T05:07:59.247Z,96916.84
2019-04-10T05:12:57.845Z,96918.73
2019-04-10T05:18:02.029Z,96922.47
2019-04-10T05:23:08.198Z,96931.19
2019-04-10T05:28:11.481Z,96927.13
2019-04-10T05:33:14.776Z,96927.77
2019-04-10T05:38:18.745Z,96931.33
2019-04-10T05:43:22.057Z,96929.79
2019-04-10T05:48:26.388Z,96937.05
2019-04-10T05:53:29.734Z,96935.55
2019-04-10T05:58:33.957Z,96940.91
2019-04-10T06:03:37.267Z,96942.25
2019-04-10T06:08:41.478Z,96942.25
2019-04-10T06:13:45.205Z,96948.67
2019-04-10T06:18:48.514Z,96944.54
2019-04-10T06:23:51.897Z,96945.45
2019-04-10T06:28:55.203Z,96945.03
2019-04-10T06:33:58.520Z,96946.50
2019-04-10T06:39:02.675Z,96942.67
2019-04-10T06:44:05.990Z,96949.64
2019-04-10T06:49:09.396Z,96951.33
2019-04-10T06:54:13.023Z,96941.59
2019-04-10T06:59:16.696Z,96944.45
2019-04-10T07:04:24.213Z,96944.63
2019-04-10T07:09:26.959Z,96950.38
2019-04-10T07:14:29.994Z,96960.39
2019-04-10T07:19:34.229Z,96958.80
2019-04-10T07:24:41.160Z,96956.14
2019-04-10T07:29:42.799Z,96967.89
2019-04-10T07:34:46.737Z,96969.68
2019-04-10T07:39:50.964Z,96968.97
2019-04-10T07:44:56.341Z,96969.06
2019-04-10T07:50:01.405Z,96978.52
2019-04-10T07:55:06.567Z,96971.52
2019-04-10T08:00:11.712Z,96969.38
2019-04-10T08:05:15.006Z,96964.90
2019-04-10T08:10:18.302Z,96972.55
2019-04-10T08:15:21.596Z,96972.93
2019-04-10T08:20:26.037Z,96977.49
2019-04-10T08:25:29.409Z,96977.42
2019-04-10T08:30:34.219Z,96979.40
2019-04-10T08:35:37.867Z,96981.98
2019-04-10T08:40:41.255Z,96976.21
2019-04-10T08:45:48.400Z,96983.20
2019-04-10T08:50:50.335Z,96982.10
2019-04-10T08:55:54.593Z,96979.30
2019-04-10T09:00:58.708Z,96981.95
2019-04-10T09:06:02.923Z,96978.83
2019-04-10T09:11:07.136Z,96973.88
2019-04-10T09:16:10.555Z,96982.45
2019-04-10T09:21:13.864Z,96984.55
2019-04-10T09:26:17.184Z,96990.48
2019-04-10T09:31:20.495Z,96984.06
2019-04-10T09:36:24.882Z,96989.77
2019-04-10T09:41:28.192Z,96990.39
2019-04-10T09:46:31.508Z,96985.56
2019-04-10T09:51:34.793Z,96986.84
2019-04-10T09:56:38.560Z,96981.14
2019-04-10T10:01:42.273Z,96977.03
2019-04-10T10:06:45.597Z,96990.70
2019-04-10T10:11:49.166Z,96986.36
2019-04-10T10:16:52.663Z,96978.11
2019-04-10T10:21:56.807Z,96975.90
2019-04-10T10:27:00.225Z,96974.05
2019-04-10T10:32:04.540Z,96977.05
2019-04-10T10:37:08.366Z,96976.24
2019-04-10T10:42:11.774Z,96982.53
2019-04-10T10:47:15.887Z,96972.38
2019-04-10T10:52:19.463Z,96971.50
2019-04-10T10:57:22.828Z,96957.48
2019-04-10T11:02:26.258Z,96957.48
2019-04-10T11:07:31.026Z,96965.39
2019-04-10T11:12:35.547Z,96974.95
2019-04-10T11:17:40.507Z,96964.39
2019-04-10T11:22:44.687Z,96972.42
2019-04-10T11:27:48.156Z,96958.97
2019-04-10T11:32:52.430Z,96956.77
2019-04-10T11:37:59.027Z,96956.67
2019-04-10T11:43:03.867Z,96957.89
2019-04-10T11:48:06.063Z,96965.95
2019-04-10T11:53:10.435Z,96966.32
2019-04-10T12:03:19.034Z,96968.22
2019-04-10T12:08:45.152Z,96969.28
2019-04-10T12:13:27.411Z,96969.28
2019-04-10T12:18:30.820Z,96983.22
2019-04-10T12:23:34.719Z,96988.02
2019-04-10T12:28:38.206Z,96983.77
2019-04-10T12:33:42.453Z,96987.72
2019-04-10T12:38:45.750Z,96981.14
2019-04-10T12:43:49.336Z,96987.49
2019-04-10T12:48:52.766Z,96984.25
2019-04-10T12:53:56.204Z,96987.97
2019-04-10T12:58:59.454Z,96989.64
2019-04-10T13:04:03.420Z,96984.69
2019-04-10T13:09:12.007Z,96987.14
2019-04-10T13:14:12.613Z,96990.52
2019-04-10T13:19:16.599Z,96984.45
2019-04-10T13:24:19.930Z,96989.77
2019-04-10T13:29:23.236Z,96991.66
2019-04-10T13:34:26.997Z,96990.72
2019-04-10T13:39:31.650Z,96982.90
2019-04-10T13:44:34.962Z,96992.50
2019-04-10T13:49:38.537Z,96987.02
2019-04-10T13:54:42.915Z,96987.83
2019-04-10T13:59:46.993Z,96983.91
2019-04-10T14:04:51.196Z,96980.92
2019-04-10T14:09:54.653Z,96988.69
2019-04-10T14:14:57.942Z,96992.77
2019-04-10T14:20:01.253Z,96994.64
2019-04-10T14:25:07.428Z,96993.77
2019-04-10T14:30:15.324Z,96995.59
2019-04-10T14:35:19.123Z,96993.72
2019-04-10T14:40:22.495Z,96992.86
2019-04-10T14:45:25.802Z,96998.86
2019-04-10T14:50:29.514Z,97000.54
2019-04-10T14:55:33.424Z,97005.39
2019-04-10T15:00:39.175Z,97006.66
2019-04-10T15:05:49.241Z,97010.53
2019-04-10T15:10:47.712Z,97009.29
2019-04-10T15:15:51.063Z,97011.39
2019-04-10T15:20:54.460Z,97011.60
2019-04-10T15:25:57.754Z,97016.67
2019-04-10T15:31:01.408Z,97016.67
2019-04-10T15:36:04.827Z,97018.47
2019-04-10T15:41:08.473Z,97019.05
2019-04-10T15:46:12.837Z,97021.20
2019-04-10T15:51:16.271Z,97021.50
2019-04-10T15:56:20.449Z,97023.30
2019-04-10T16:01:26.607Z,97026.62
2019-04-10T16:06:29.383Z,97030.69
2019-04-10T16:11:43.821Z,97033.21
2019-04-10T16:17:04.725Z,97030.86
2019-04-10T16:22:10.559Z,97024.97
2019-04-10T16:27:14.036Z,97043.55
2019-04-10T16:32:17.418Z,97033.42
2019-04-10T16:37:20.726Z,97036.78
2019-04-10T16:42:24.438Z,97040.36
2019-04-10T16:47:28.266Z,97041.53
2019-04-10T16:52:31.598Z,97046.50
2019-04-10T16:57:34.952Z,97054.19
2019-04-10T17:02:38.262Z,97059.95
2019-04-10T17:07:41.577Z,97063.12
2019-04-10T17:12:44.878Z,97072.63
2019-04-10T17:17:48.191Z,97071.57
2019-04-10T17:22:52.065Z,97073.27
2019-04-10T17:27:56.331Z,97075.88
2019-04-10T17:33:00.636Z,97083.95
2019-04-10T17:38:04.605Z,97088.68
2019-04-10T17:43:08.565Z,97086.85
2019-04-10T17:48:12.023Z,97092.53
2019-04-10T17:53:17.212Z,97097.95
2019-04-10T17:58:21.297Z,97102.74
2019-04-10T18:03:25.493Z,97105.92
2019-04-10T18:08:30.126Z,97121.83
2019-04-10T18:13:34.153Z,97121.83
2019-04-10T18:18:37.971Z,97132.03
2019-04-10T18:23:41.924Z,97136.19
2019-04-10T18:28:45.649Z,97150.87
2019-04-10T18:33:49.022Z,97150.87
2019-04-10T18:38:52.678Z,97162.94
2019-04-10T18:43:58.473Z,97166.95
2019-04-10T18:49:03.168Z,97173.66
2019-04-10T18:54:08.005Z,97181.06
2019-04-10T18:59:13.260Z,97180.50
2019-04-10T19:04:30.737Z,97184.15
2019-04-10T19:09:36.805Z,97190.06
2019-04-10T19:14:40.624Z,97191.72
2019-04-10T19:19:45.365Z,97200.12
2019-04-10T19:24:50.201Z,97200.62
2019-04-10T19:29:53.611Z,97208.36
2019-04-10T19:34:57.220Z,97209.39
2019-04-10T19:40:00.619Z,97212.58
2019-04-10T19:45:05.968Z,97221.42
2019-04-10T19:50:09.365Z,97216.55
2019-04-10T19:55:13.569Z,97234.28
2019-04-10T20:00:20.008Z,97241.76
2019-04-10T20:05:23.456Z,97249.77
2019-04-10T20:10:27.603Z,97253.77
2019-04-10T20:15:31.098Z,97264.80
2019-04-10T20:20:35.808Z,97267.46
2019-04-10T20:25:39.130Z,97281.30
2019-04-10T20:30:44.516Z,97282.50
2019-04-10T20:35:48.797Z,97294.23
2019-04-10T20:40:52.213Z,97293.84
2019-04-10T20:45:55.943Z,97314.85
2019-04-10T20:50:59.260Z,97321.13
2019-04-10T20:56:02.577Z,97314.30
2019-04-10T21:01:06.114Z,97329.30
2019-04-10T21:06:09.517Z,97328.88
2019-04-10T21:11:13.863Z,97331.61
2019-04-10T21:16:17.711Z,97330.66
2019-04-10T21:21:22.194Z,97336.01
2019-04-10T21:26:25.645Z,97340.06
2019-04-10T21:31:48.953Z,97350.31
2019-04-10T21:36:53.307Z,97357.66
2019-04-10T21:42:09.337Z,97367.95
2019-04-10T21:47:01.907Z,97369.91
2019-04-10T21:52:05.748Z,97372.25
2019-04-10T21:57:09.675Z,97374.96
2019-04-10T22:02:15.127Z,97368.47
2019-04-10T22:07:34.837Z,97378.28
2019-04-10T22:12:43.797Z,97378.34
2019-04-10T22:17:44.564Z,97390.15
2019-04-10T22:22:47.903Z,97383.77
2019-04-10T22:27:52.205Z,97385.58
2019-04-10T22:32:55.705Z,97389.30
2019-04-10T22:37:58.942Z,97386.36
2019-04-10T22:43:03.279Z,97387.01
2019-04-10T22:48:06.613Z,97391.06
2019-04-10T22:53:09.903Z,97393.61
2019-04-10T22:58:13.199Z,97397.36
2019-04-10T23:03:16.490Z,97403.35
2019-04-10T23:08:19.877Z,97398.62
2019-04-10T23:13:23.763Z,97398.48
2019-04-10T23:18:27.607Z,97399.97
2019-04-10T23:23:32.790Z,97404.91
2019-04-10T23:28:36.191Z,97409.91
2019-04-10T23:33:39.881Z,97408.14
2019-04-10T23:38:43.782Z,97406.83
2019-04-10T23:43:48.094Z,97409.73
2019-04-10T23:48:51.528Z,97414.16
2019-04-10T23:53:55.077Z,97408.03
2019-04-10T23:58:58.444Z,97414.51
